Time;durP1;ratioP1;P1;durP2;ratioP2;P2;SDS_P1;SDS_P2;PMS_P1;PMS_P2;Temp;Humidity;BMP_temperature;BMP_pressure;BME280_temperature;BME280_humidity;BME280_pressure;Samples;Min_cycle;Max_cycle;Signal;HPM_P1;HPM_P2
2022/01/01 00:01:04;;;;;;;;;;;10.10;99.90;;;;;;5086268;28;19921;-71
2022/01/01 00:03:32;;;;;;;;;;;10.10;99.90;;;;;;5086471;28;19921;-71
2022/01/01 00:05:59;;;;;;;;;;;10.10;99.90;;;;;;5086173;28;19920;-72
2022/01/01 00:08:25;;;;;;;;;;;10.10;99.90;;;;;;5086397;28;19921;-71
2022/01/01 00:10:54;;;;;;;;;;;10.10;99.90;;;;;;5086440;28;19920;-71
2022/01/01 00:13:21;;;;;;;;;;;10.10;99.90;;;;;;5103025;28;20238;-71
2022/01/01 00:15:47;;;;;;;;;;;10.10;99.90;;;;;;5105794;28;19927;-72
2022/01/01 00:18:16;;;;;;;;;;;10.10;99.90;;;;;;5106095;28;19920;-71
2022/01/01 00:20:44;;;;;;;;;;;10.10;99.90;;;;;;5106266;28;19926;-71
2022/01/01 00:23:10;;;;;;;;;;;10.10;99.90;;;;;;5106306;28;19920;-71
2022/01/01 00:25:37;;;;;;;;;;;10.10;99.90;;;;;;5105829;28;19920;-71
2022/01/01 00:28:04;;;;;;;;;;;10.10;99.90;;;;;;5105646;28;19924;-71
2022/01/01 00:30:30;;;;;;;;;;;10.10;99.90;;;;;;5105420;28;19920;-71
2022/01/01 00:32:57;;;;;;;;;;;10.10;99.90;;;;;;5105635;28;19928;-71
2022/01/01 00:35:24;;;;;;;;;;;10.10;99.90;;;;;;5105790;28;19920;-71
2022/01/01 00:37:52;;;;;;;;;;;10.20;99.90;;;;;;5105851;28;19920;-71
2022/01/01 00:40:20;;;;;;;;;;;10.20;99.90;;;;;;5105432;28;19921;-71
2022/01/01 00:42:47;;;;;;;;;;;10.10;99.90;;;;;;5106425;28;19966;-71
2022/01/01 00:45:14;;;;;;;;;;;10.10;99.90;;;;;;5105366;28;19920;-71
2022/01/01 00:47:41;;;;;;;;;;;10.10;99.90;;;;;;5106195;28;19924;-71
2022/01/01 00:50:08;;;;;;;;;;;10.10;99.90;;;;;;5094831;28;19927;-71
2022/01/01 00:52:36;;;;;;;;;;;10.10;99.90;;;;;;5102893;28;19965;-71
2022/01/01 00:55:04;;;;;;;;;;;10.20;99.90;;;;;;5084971;28;19921;-71
2022/01/01 00:57:30;;;;;;;;;;;10.20;99.90;;;;;;5088473;28;19920;-71
2022/01/01 00:59:57;;;;;;;;;;;10.20;99.90;;;;;;5105062;28;20222;-71
2022/01/01 01:02:24;;;;;;;;;;;10.20;99.90;;;;;;5102990;28;20149;-72
2022/01/01 01:04:50;;;;;;;;;;;10.20;99.90;;;;;;5103601;28;20116;-71
2022/01/01 01:07:17;;;;;;;;;;;10.20;99.90;;;;;;5104583;28;19920;-72
2022/01/01 01:09:43;;;;;;;;;;;10.20;99.90;;;;;;5105034;28;19940;-72
2022/01/01 01:12:11;;;;;;;;;;;10.20;99.90;;;;;;5104882;28;19920;-72
2022/01/01 01:14:41;;;;;;;;;;;10.20;99.90;;;;;;5104571;28;19965;-72
2022/01/01 01:17:08;;;;;;;;;;;10.20;99.90;;;;;;5104897;28;19924;-71
2022/01/01 01:19:35;;;;;;;;;;;10.30;99.90;;;;;;5104752;28;19927;-71
2022/01/01 01:22:01;;;;;;;;;;;10.30;99.90;;;;;;5104819;28;19920;-71
2022/01/01 01:24:28;;;;;;;;;;;10.20;99.90;;;;;;5104355;28;19926;-71
2022/01/01 01:27:00;;;;;;;;;;;10.20;99.90;;;;;;5104616;28;20233;-71
2022/01/01 01:29:29;;;;;;;;;;;10.20;99.90;;;;;;5104656;28;20003;-71
2022/01/01 01:31:56;;;;;;;;;;;10.20;99.90;;;;;;5104579;28;19951;-71
2022/01/01 01:34:22;;;;;;;;;;;10.10;99.90;;;;;;5104050;28;20123;-71
2022/01/01 01:36:49;;;;;;;;;;;10.10;99.90;;;;;;5104598;28;19991;-71
2022/01/01 01:39:16;;;;;;;;;;;10.10;99.90;;;;;;5104562;28;19927;-71
2022/01/01 01:41:44;;;;;;;;;;;10.10;99.90;;;;;;5104500;28;20096;-71
2022/01/01 01:44:24;;;;;;;;;;;10.10;99.90;;;;;;5104187;28;19920;-71
2022/01/01 01:46:54;;;;;;;;;;;10.00;99.90;;;;;;5103631;28;21250;-71
2022/01/01 01:49:20;;;;;;;;;;;10.00;99.90;;;;;;5104682;28;19958;-71
2022/01/01 01:51:47;;;;;;;;;;;9.90;99.90;;;;;;5103705;28;19973;-71
2022/01/01 01:54:14;;;;;;;;;;;9.90;99.90;;;;;;5103781;28;20203;-71
2022/01/01 01:56:41;;;;;;;;;;;9.90;99.90;;;;;;5104230;28;19942;-71
2022/01/01 01:59:07;;;;;;;;;;;9.90;99.90;;;;;;5104473;28;19920;-71
2022/01/01 02:01:34;;;;;;;;;;;9.90;99.90;;;;;;5103792;28;20208;-71
2022/01/01 02:04:02;;;;;;;;;;;9.90;99.90;;;;;;5103812;28;19920;-71
2022/01/01 02:06:28;;;;;;;;;;;9.90;99.90;;;;;;5100991;22;19921;-71
2022/01/01 02:08:55;;;;;;;;;;;9.90;99.90;;;;;;5063712;28;19920;-71
2022/01/01 02:11:23;;;;;;;;;;;9.90;99.90;;;;;;5063698;28;19920;-71
2022/01/01 02:14:03;;;;;;;;;;;9.90;99.90;;;;;;5063395;28;19974;-71
2022/01/01 02:16:38;;;;;;;;;;;9.90;99.90;;;;;;5063715;28;19921;-71
2022/01/01 02:19:06;;;;;;;;;;;9.90;99.90;;;;;;5063694;28;19921;-71
2022/01/01 02:21:34;;;;;;;;;;;9.90;99.90;;;;;;5063617;28;19920;-71
2022/01/01 02:24:00;;;;;;;;;;;9.90;99.90;;;;;;5063169;28;19931;-71
2022/01/01 02:26:28;;;;;;;;;;;9.80;99.90;;;;;;5063720;28;19921;-71
2022/01/01 02:28:55;;;;;;;;;;;9.90;99.90;;;;;;5063403;28;19931;-71
2022/01/01 02:31:22;;;;;;;;;;;9.80;99.90;;;;;;5063275;28;20246;-71
2022/01/01 02:33:48;;;;;;;;;;;9.90;99.90;;;;;;5063182;28;19924;-72
2022/01/01 02:36:15;;;;;;;;;;;9.90;99.90;;;;;;5063562;28;20161;-72
2022/01/01 02:38:43;;;;;;;;;;;9.90;99.90;;;;;;5063225;28;19928;-72
2022/01/01 02:41:09;;;;;;;;;;;9.90;99.90;;;;;;5063058;28;20219;-71
2022/01/01 02:43:43;;;;;;;;;;;9.80;99.90;;;;;;5063381;28;20226;-72
2022/01/01 02:46:10;;;;;;;;;;;9.80;99.90;;;;;;5063180;28;20116;-71
2022/01/01 02:48:37;;;;;;;;;;;9.90;99.90;;;;;;5063085;28;19921;-71
2022/01/01 02:51:05;;;;;;;;;;;9.90;99.90;;;;;;5063113;28;19958;-72
2022/01/01 02:53:31;;;;;;;;;;;9.90;99.90;;;;;;5063022;28;19921;-72
2022/01/01 02:55:59;;;;;;;;;;;9.90;99.90;;;;;;5063078;28;19940;-72
2022/01/01 02:58:26;;;;;;;;;;;9.90;99.90;;;;;;5063209;28;19920;-72
2022/01/01 03:00:52;;;;;;;;;;;9.90;99.90;;;;;;5063007;28;20128;-71
2022/01/01 03:03:19;;;;;;;;;;;9.80;99.90;;;;;;5066552;28;19943;-71
2022/01/01 03:05:45;;;;;;;;;;;9.80;99.90;;;;;;5066678;28;19924;-71
2022/01/01 03:08:12;;;;;;;;;;;9.90;99.90;;;;;;5067130;28;19927;-71
2022/01/01 03:10:38;;;;;;;;;;;9.80;99.90;;;;;;5067237;28;19927;-71
2022/01/01 03:13:06;;;;;;;;;;;9.80;99.90;;;;;;5067133;28;19927;-71
2022/01/01 03:15:33;;;;;;;;;;;9.90;99.90;;;;;;5066825;28;20097;-71
2022/01/01 03:18:01;;;;;;;;;;;9.90;99.90;;;;;;5066938;28;19921;-71
2022/01/01 03:20:28;;;;;;;;;;;9.90;99.90;;;;;;5066663;28;19925;-71
2022/01/01 03:22:55;;;;;;;;;;;9.80;99.90;;;;;;5066815;28;20115;-71
2022/01/01 03:25:21;;;;;;;;;;;9.80;99.90;;;;;;5066809;28;19942;-71
2022/01/01 03:27:48;;;;;;;;;;;9.90;99.90;;;;;;5066939;28;19927;-71
2022/01/01 03:30:16;;;;;;;;;;;9.80;99.90;;;;;;5066871;28;19996;-71
2022/01/01 03:32:42;;;;;;;;;;;9.80;99.90;;;;;;5066623;28;19921;-71
2022/01/01 03:35:09;;;;;;;;;;;9.90;99.90;;;;;;5066452;28;19928;-71
2022/01/01 03:37:36;;;;;;;;;;;9.90;99.90;;;;;;5066404;28;19927;-71
2022/01/01 03:40:04;;;;;;;;;;;9.80;99.90;;;;;;5066789;28;19927;-71
2022/01/01 03:42:30;;;;;;;;;;;9.80;99.90;;;;;;5066451;28;19956;-71
2022/01/01 03:44:57;;;;;;;;;;;9.80;99.90;;;;;;5066304;28;19921;-71
2022/01/01 03:47:25;;;;;;;;;;;9.80;99.90;;;;;;5066171;28;19921;-71
2022/01/01 03:49:51;;;;;;;;;;;9.80;99.90;;;;;;5066204;28;20205;-71
2022/01/01 03:52:18;;;;;;;;;;;9.90;99.90;;;;;;5066421;28;19921;-71
2022/01/01 03:54:44;;;;;;;;;;;9.80;99.90;;;;;;5066070;28;19927;-71
2022/01/01 03:57:11;;;;;;;;;;;9.80;99.90;;;;;;5066160;28;19920;-71
2022/01/01 03:59:38;;;;;;;;;;;9.90;99.90;;;;;;5066538;28;19921;-71
2022/01/01 04:02:04;;;;;;;;;;;9.90;99.90;;;;;;5066108;28;19943;-71
2022/01/01 04:04:32;;;;;;;;;;;9.80;99.90;;;;;;5065838;28;19929;-71
2022/01/01 04:07:00;;;;;;;;;;;9.80;99.90;;;;;;5065926;28;20234;-71
2022/01/01 04:09:26;;;;;;;;;;;9.80;99.90;;;;;;5066063;28;19920;-71
2022/01/01 04:11:53;;;;;;;;;;;9.80;99.90;;;;;;5065893;28;19921;-71
2022/01/01 04:14:19;;;;;;;;;;;9.80;99.90;;;;;;5064716;28;20212;-71
2022/01/01 04:16:47;;;;;;;;;;;9.80;99.90;;;;;;5065761;28;19921;-71
2022/01/01 04:19:14;;;;;;;;;;;9.80;99.90;;;;;;5065638;28;19944;-70
2022/01/01 04:21:42;;;;;;;;;;;9.80;99.90;;;;;;5065702;28;20310;-71
2022/01/01 04:24:08;;;;;;;;;;;9.80;99.90;;;;;;5065641;28;19944;-72
2022/01/01 04:26:35;;;;;;;;;;;9.90;99.90;;;;;;5065615;28;20223;-71
2022/01/01 04:29:01;;;;;;;;;;;9.90;99.90;;;;;;5065637;28;19920;-71
2022/01/01 04:31:28;;;;;;;;;;;9.80;99.90;;;;;;5065459;28;19920;-70
2022/01/01 04:33:55;;;;;;;;;;;9.80;99.90;;;;;;5065208;28;20127;-71
2022/01/01 04:36:22;;;;;;;;;;;9.80;99.90;;;;;;5065352;28;20231;-71
2022/01/01 04:38:50;;;;;;;;;;;9.80;99.90;;;;;;5065616;28;19924;-71
2022/01/01 04:41:17;;;;;;;;;;;9.80;99.90;;;;;;5065252;28;19921;-71
2022/01/01 04:43:45;;;;;;;;;;;9.80;99.90;;;;;;5065022;28;19932;-71
2022/01/01 04:46:12;;;;;;;;;;;9.80;99.90;;;;;;5065142;28;19921;-72
2022/01/01 04:48:40;;;;;;;;;;;9.80;99.90;;;;;;5065324;28;19921;-71
2022/01/01 04:51:08;;;;;;;;;;;9.80;99.90;;;;;;5065335;28;19921;-71
2022/01/01 04:53:34;;;;;;;;;;;9.80;99.90;;;;;;5064943;28;20234;-71
2022/01/01 04:56:06;;;;;;;;;;;9.90;99.90;;;;;;5064991;28;19921;-72
2022/01/01 04:58:33;;;;;;;;;;;9.80;99.90;;;;;;5065497;28;20176;-72
2022/01/01 05:00:59;;;;;;;;;;;9.80;99.90;;;;;;5065179;28;19944;-71
2022/01/01 05:03:26;;;;;;;;;;;9.80;99.90;;;;;;5065103;28;19927;-72
2022/01/01 05:05:52;;;;;;;;;;;9.90;99.90;;;;;;5064543;28;20204;-72
2022/01/01 05:08:19;;;;;;;;;;;9.80;99.90;;;;;;5064998;28;19941;-70
2022/01/01 05:10:46;;;;;;;;;;;9.80;99.90;;;;;;5064714;28;19927;-72
2022/01/01 05:13:14;;;;;;;;;;;9.80;99.90;;;;;;5064571;28;19920;-71
2022/01/01 05:15:41;;;;;;;;;;;9.80;99.90;;;;;;5064405;28;19921;-72
2022/01/01 05:18:07;;;;;;;;;;;9.80;99.90;;;;;;5064698;28;19933;-71
2022/01/01 05:20:34;;;;;;;;;;;9.80;99.90;;;;;;5064763;28;19925;-71
2022/01/01 05:23:00;;;;;;;;;;;9.80;99.90;;;;;;5064622;28;19921;-72
2022/01/01 05:25:28;;;;;;;;;;;9.70;99.90;;;;;;5064144;28;20101;-72
2022/01/01 05:27:54;;;;;;;;;;;9.70;99.90;;;;;;5064335;28;19921;-71
2022/01/01 05:30:22;;;;;;;;;;;9.70;99.90;;;;;;5064558;28;19928;-72
2022/01/01 05:32:49;;;;;;;;;;;9.70;99.90;;;;;;5064605;28;19921;-72
2022/01/01 05:35:15;;;;;;;;;;;9.60;99.90;;;;;;5064032;28;19921;-72
2022/01/01 05:37:42;;;;;;;;;;;9.60;99.90;;;;;;5064225;28;20131;-72
2022/01/01 05:40:09;;;;;;;;;;;9.60;99.90;;;;;;5064309;28;19995;-71
2022/01/01 05:42:36;;;;;;;;;;;9.60;99.90;;;;;;5064066;28;19927;-72
2022/01/01 05:45:02;;;;;;;;;;;9.60;99.90;;;;;;5063885;28;19932;-71
2022/01/01 05:47:30;;;;;;;;;;;9.60;99.90;;;;;;5064080;28;19927;-72
2022/01/01 05:49:58;;;;;;;;;;;9.60;99.90;;;;;;5064146;28;19927;-72
2022/01/01 05:52:25;;;;;;;;;;;9.60;99.90;;;;;;5064192;28;19952;-71
2022/01/01 05:54:51;;;;;;;;;;;9.60;99.90;;;;;;5063711;28;19920;-71
2022/01/01 05:57:18;;;;;;;;;;;9.60;99.90;;;;;;5064005;28;19920;-72
2022/01/01 05:59:44;;;;;;;;;;;9.60;99.90;;;;;;5064029;28;19996;-71
2022/01/01 06:02:11;;;;;;;;;;;9.60;99.90;;;;;;5064044;28;20225;-72
2022/01/01 06:04:39;;;;;;;;;;;9.60;99.90;;;;;;5063548;28;19921;-71
2022/01/01 06:07:07;;;;;;;;;;;9.50;99.90;;;;;;5063566;28;20204;-71
2022/01/01 06:09:33;;;;;;;;;;;9.50;99.90;;;;;;5063443;28;19920;-71
2022/01/01 06:12:00;;;;;;;;;;;9.50;99.90;;;;;;5063592;28;20203;-71
2022/01/01 06:14:26;;;;;;;;;;;9.60;99.90;;;;;;5063539;28;20115;-71
2022/01/01 06:16:53;;;;;;;;;;;9.60;99.90;;;;;;5063677;28;19920;-71
2022/01/01 06:19:20;;;;;;;;;;;9.60;99.90;;;;;;5063552;28;19927;-71
2022/01/01 06:21:47;;;;;;;;;;;9.60;99.90;;;;;;5063608;28;19921;-72
2022/01/01 06:24:14;;;;;;;;;;;9.60;99.90;;;;;;5063043;28;19929;-72
2022/01/01 06:26:41;;;;;;;;;;;9.60;99.90;;;;;;5063331;28;20212;-71
2022/01/01 06:29:07;;;;;;;;;;;9.70;99.90;;;;;;5063497;28;19927;-71
2022/01/01 06:31:34;;;;;;;;;;;9.70;99.90;;;;;;5063346;28;19927;-71
2022/01/01 06:34:00;;;;;;;;;;;9.70;99.90;;;;;;5063167;28;19921;-72
2022/01/01 06:36:27;;;;;;;;;;;9.60;99.90;;;;;;5062725;28;19927;-72
2022/01/01 06:38:55;;;;;;;;;;;9.70;99.90;;;;;;5063224;28;19929;-70
2022/01/01 06:41:24;;;;;;;;;;;9.70;99.90;;;;;;5063330;28;19928;-71
2022/01/01 06:43:51;;;;;;;;;;;9.70;99.90;;;;;;5063295;28;20093;-71
2022/01/01 06:46:18;;;;;;;;;;;9.70;99.90;;;;;;5063074;28;19927;-71
2022/01/01 06:48:44;;;;;;;;;;;9.80;99.90;;;;;;5062267;28;19921;-71
2022/01/01 06:51:11;;;;;;;;;;;9.70;99.90;;;;;;5052504;28;19927;-71
2022/01/01 06:53:37;;;;;;;;;;;9.70;99.90;;;;;;5060487;28;19921;-71
2022/01/01 06:56:06;;;;;;;;;;;9.70;99.90;;;;;;5043225;28;19928;-72
2022/01/01 06:58:33;;;;;;;;;;;9.70;99.90;;;;;;5051043;28;19927;-71
2022/01/01 07:01:00;;;;;;;;;;;9.60;99.90;;;;;;5062983;28;19927;-72
2022/01/01 07:03:26;;;;;;;;;;;9.60;99.90;;;;;;5062999;28;19921;-71
2022/01/01 07:05:53;;;;;;;;;;;9.60;99.90;;;;;;5062525;28;19984;-71
2022/01/01 07:08:19;;;;;;;;;;;9.60;99.90;;;;;;5063297;28;19921;-71
2022/01/01 07:10:46;;;;;;;;;;;9.60;99.90;;;;;;5062989;28;19920;-71
2022/01/01 07:13:14;;;;;;;;;;;9.60;99.90;;;;;;5062912;28;19928;-71
2022/01/01 07:15:41;;;;;;;;;;;9.60;99.90;;;;;;5062590;28;21211;-71
2022/01/01 07:18:08;;;;;;;;;;;9.60;99.90;;;;;;5062824;28;20147;-71
2022/01/01 07:20:34;;;;;;;;;;;9.60;99.90;;;;;;5062730;28;19921;-72
2022/01/01 07:23:01;;;;;;;;;;;9.60;99.90;;;;;;5063004;28;19921;-71
2022/01/01 07:25:28;;;;;;;;;;;9.60;99.90;;;;;;5062684;28;19927;-71
2022/01/01 07:27:55;;;;;;;;;;;9.50;99.90;;;;;;5062911;28;19983;-72
2022/01/01 07:30:23;;;;;;;;;;;9.60;99.90;;;;;;5062805;28;19921;-71
2022/01/01 07:32:50;;;;;;;;;;;9.50;99.90;;;;;;5062676;28;19921;-71
2022/01/01 07:35:17;;;;;;;;;;;9.60;99.90;;;;;;5062640;28;19921;-71
2022/01/01 07:37:44;;;;;;;;;;;9.60;99.90;;;;;;5062838;28;19927;-71
2022/01/01 07:40:12;;;;;;;;;;;9.70;99.90;;;;;;5062848;28;19928;-71
2022/01/01 07:42:39;;;;;;;;;;;9.60;99.90;;;;;;5062705;28;19963;-72
2022/01/01 07:45:06;;;;;;;;;;;9.60;99.90;;;;;;5062465;28;19927;-71
2022/01/01 07:47:34;;;;;;;;;;;9.60;99.90;;;;;;5062281;28;20222;-71
2022/01/01 07:50:00;;;;;;;;;;;9.70;99.90;;;;;;5065270;28;19928;-71
2022/01/01 07:52:27;;;;;;;;;;;9.70;99.90;;;;;;5066490;28;19928;-72
2022/01/01 07:54:53;;;;;;;;;;;9.70;99.90;;;;;;5065917;28;19935;-71
2022/01/01 07:57:20;;;;;;;;;;;9.70;99.90;;;;;;5066365;28;19921;-72
2022/01/01 07:59:47;;;;;;;;;;;9.70;99.90;;;;;;5066085;28;20223;-72
2022/01/01 08:02:13;;;;;;;;;;;9.70;99.90;;;;;;5065951;28;20227;-72
2022/01/01 08:04:41;;;;;;;;;;;9.70;99.90;;;;;;5066068;28;19988;-72
2022/01/01 08:07:08;;;;;;;;;;;9.70;99.90;;;;;;5110840;22;19920;-71
2022/01/01 08:09:38;;;;;;;;;;;9.70;99.90;;;;;;5106140;28;19920;-71
2022/01/01 08:12:05;;;;;;;;;;;9.80;99.90;;;;;;5106243;28;19921;-71
2022/01/01 08:14:32;;;;;;;;;;;9.80;99.90;;;;;;5104926;28;19927;-72
2022/01/01 08:16:59;;;;;;;;;;;9.80;99.90;;;;;;5106213;28;19927;-72
2022/01/01 08:19:25;;;;;;;;;;;9.80;99.90;;;;;;5106483;28;19920;-72
2022/01/01 08:21:54;;;;;;;;;;;9.90;99.90;;;;;;5105683;28;20114;-73
2022/01/01 08:24:20;;;;;;;;;;;9.90;99.90;;;;;;5105737;28;19926;-72
2022/01/01 08:26:47;;;;;;;;;;;9.90;99.90;;;;;;5105802;28;20215;-72
2022/01/01 08:29:14;;;;;;;;;;;9.90;99.90;;;;;;5106055;28;19950;-72
2022/01/01 08:31:40;;;;;;;;;;;10.00;99.90;;;;;;5105992;28;20187;-73
2022/01/01 08:34:07;;;;;;;;;;;9.90;99.90;;;;;;5105609;28;19927;-72
2022/01/01 08:36:33;;;;;;;;;;;9.90;99.90;;;;;;5105729;28;19921;-72
2022/01/01 08:39:01;;;;;;;;;;;9.90;99.90;;;;;;5105678;28;19924;-73
2022/01/01 08:41:28;;;;;;;;;;;9.90;99.90;;;;;;5105051;28;19919;-72
2022/01/01 08:43:55;;;;;;;;;;;9.90;99.90;;;;;;5105471;28;19924;-73
2022/01/01 08:46:21;;;;;;;;;;;9.90;99.90;;;;;;5105673;28;19920;-73
2022/01/01 08:48:48;;;;;;;;;;;9.90;99.90;;;;;;5105620;28;19920;-72
2022/01/01 08:51:16;;;;;;;;;;;9.90;99.90;;;;;;5105461;28;19926;-71
2022/01/01 08:53:42;;;;;;;;;;;9.90;99.90;;;;;;5105042;28;19924;-71
2022/01/01 08:56:11;;;;;;;;;;;10.00;99.90;;;;;;5105179;28;20126;-71
2022/01/01 08:58:39;;;;;;;;;;;10.00;99.90;;;;;;5105264;28;19920;-71
2022/01/01 09:01:06;;;;;;;;;;;10.00;99.90;;;;;;5105071;28;19920;-71
2022/01/01 09:03:34;;;;;;;;;;;10.00;99.90;;;;;;5104666;28;19920;-71
2022/01/01 09:06:01;;;;;;;;;;;10.00;99.90;;;;;;5104789;28;20215;-71
2022/01/01 09:08:28;;;;;;;;;;;10.00;99.90;;;;;;5105219;28;19920;-71
2022/01/01 09:10:54;;;;;;;;;;;10.10;99.90;;;;;;5105143;28;19927;-71
2022/01/01 09:13:22;;;;;;;;;;;10.00;99.90;;;;;;5105087;28;19920;-71
2022/01/01 09:15:49;;;;;;;;;;;10.00;99.90;;;;;;5105044;28;19920;-71
2022/01/01 09:18:16;;;;;;;;;;;10.10;99.90;;;;;;5104778;28;19927;-71
2022/01/01 09:20:42;;;;;;;;;;;10.10;99.90;;;;;;5105298;28;19920;-72
2022/01/01 09:23:09;;;;;;;;;;;10.10;99.90;;;;;;5104997;28;19920;-71
2022/01/01 09:25:37;;;;;;;;;;;10.10;99.90;;;;;;5103694;28;19926;-71
2022/01/01 09:28:03;;;;;;;;;;;10.10;99.90;;;;;;5104873;28;20002;-71
2022/01/01 09:30:31;;;;;;;;;;;10.10;99.90;;;;;;5104928;28;19920;-71
2022/01/01 09:32:58;;;;;;;;;;;10.10;99.90;;;;;;5104645;28;19920;-71
2022/01/01 09:35:25;;;;;;;;;;;10.20;99.90;;;;;;5104374;28;20119;-72
2022/01/01 09:37:51;;;;;;;;;;;10.20;99.90;;;;;;5104744;28;19920;-71
2022/01/01 09:40:18;;;;;;;;;;;10.20;99.90;;;;;;5104930;28;19928;-71
2022/01/01 09:42:46;;;;;;;;;;;10.20;99.90;;;;;;5104754;28;19927;-71
2022/01/01 09:45:12;;;;;;;;;;;10.30;99.90;;;;;;5104458;28;19919;-71
2022/01/01 09:47:41;;;;;;;;;;;10.30;99.90;;;;;;5104523;28;19920;-70
2022/01/01 09:50:08;;;;;;;;;;;10.30;99.90;;;;;;5104566;28;19920;-70
2022/01/01 09:52:35;;;;;;;;;;;10.30;99.90;;;;;;5104238;28;19924;-71
2022/01/01 09:55:01;;;;;;;;;;;10.30;99.90;;;;;;5104229;28;19942;-71
2022/01/01 09:57:28;;;;;;;;;;;10.30;99.90;;;;;;5104060;28;19927;-71
2022/01/01 09:59:54;;;;;;;;;;;10.40;99.90;;;;;;5104280;28;19958;-71
2022/01/01 10:02:21;;;;;;;;;;;10.40;99.90;;;;;;5104063;28;19920;-71
2022/01/01 10:04:51;;;;;;;;;;;10.40;99.90;;;;;;5103553;28;20207;-72
2022/01/01 10:07:18;;;;;;;;;;;10.40;99.90;;;;;;5103582;28;19920;-71
2022/01/01 10:09:45;;;;;;;;;;;10.40;99.90;;;;;;5104256;28;19920;-71
2022/01/01 10:12:16;;;;;;;;;;;10.40;99.90;;;;;;5103377;28;19920;-72
2022/01/01 10:14:43;;;;;;;;;;;10.40;99.90;;;;;;5103913;28;19920;-71
2022/01/01 10:17:14;;;;;;;;;;;10.40;99.90;;;;;;5103927;28;19924;-71
2022/01/01 10:19:40;;;;;;;;;;;10.40;99.90;;;;;;5103836;28;19941;-72
2022/01/01 10:22:12;;;;;;;;;;;10.40;99.90;;;;;;5103129;28;19927;-72
2022/01/01 10:27:44;;;;;;;;;;;10.50;99.90;;;;;;5103843;28;19922;-71
2022/01/01 10:30:17;;;;;;;;;;;10.50;99.90;;;;;;5104177;28;19927;-72
2022/01/01 10:32:59;;;;;;;;;;;10.60;99.90;;;;;;5104018;28;19920;-71
2022/01/01 10:35:25;;;;;;;;;;;10.60;99.90;;;;;;5103514;28;20229;-71
2022/01/01 10:37:54;;;;;;;;;;;10.60;99.90;;;;;;5103990;28;19920;-72
2022/01/01 10:40:25;;;;;;;;;;;10.60;99.90;;;;;;5103689;28;20199;-71
2022/01/01 10:42:52;;;;;;;;;;;10.60;99.90;;;;;;5103952;28;19969;-70
2022/01/01 10:45:28;;;;;;;;;;;10.70;99.90;;;;;;5103351;28;19920;-70
2022/01/01 10:48:04;;;;;;;;;;;10.70;99.90;;;;;;5103862;28;19926;-71
2022/01/01 10:50:32;;;;;;;;;;;10.70;99.90;;;;;;5103915;28;19920;-71
2022/01/01 10:53:09;;;;;;;;;;;10.70;99.90;;;;;;5103699;28;19920;-70
2022/01/01 10:55:36;;;;;;;;;;;10.70;99.90;;;;;;5103537;28;19920;-70
2022/01/01 10:58:03;;;;;;;;;;;10.70;99.90;;;;;;5103709;28;19920;-73
2022/01/01 11:00:29;;;;;;;;;;;10.70;99.90;;;;;;5103573;28;19920;-70
2022/01/01 11:02:57;;;;;;;;;;;10.70;99.90;;;;;;5102839;28;19921;-70
2022/01/01 11:05:27;;;;;;;;;;;10.70;99.90;;;;;;5103345;28;19920;-71
2022/01/01 11:07:54;;;;;;;;;;;10.70;99.90;;;;;;5103231;28;19920;-71
2022/01/01 11:10:22;;;;;;;;;;;10.70;99.90;;;;;;5103284;28;20207;-71
2022/01/01 11:12:49;;;;;;;;;;;10.70;99.90;;;;;;5103655;28;19920;-71
2022/01/01 11:15:15;;;;;;;;;;;10.70;99.90;;;;;;5103424;28;20108;-71
2022/01/01 11:17:43;;;;;;;;;;;10.70;99.90;;;;;;5103490;28;19924;-71
2022/01/01 11:20:10;;;;;;;;;;;10.80;99.90;;;;;;5103308;28;19920;-70
2022/01/01 11:22:37;;;;;;;;;;;10.80;99.90;;;;;;5104104;28;19920;-71
2022/01/01 11:25:04;;;;;;;;;;;10.80;99.90;;;;;;5107181;28;19994;-70
2022/01/01 11:27:32;;;;;;;;;;;10.80;99.90;;;;;;5107567;28;20247;-70
2022/01/01 11:30:00;;;;;;;;;;;10.90;99.90;;;;;;5107782;28;20149;-71
2022/01/01 11:32:30;;;;;;;;;;;10.90;99.90;;;;;;5107346;28;19920;-71
2022/01/01 11:34:57;;;;;;;;;;;10.90;99.90;;;;;;5107095;28;19920;-73
2022/01/01 11:37:24;;;;;;;;;;;11.00;99.90;;;;;;5107392;28;19920;-71
2022/01/01 11:39:54;;;;;;;;;;;11.00;99.90;;;;;;5107371;28;19924;-72
2022/01/01 11:42:22;;;;;;;;;;;11.00;99.90;;;;;;5107509;28;19920;-71
2022/01/01 11:44:52;;;;;;;;;;;11.00;99.90;;;;;;5107051;28;20114;-71
2022/01/01 11:47:20;;;;;;;;;;;11.00;99.90;;;;;;5107244;28;19920;-71
2022/01/01 11:49:46;;;;;;;;;;;11.00;99.90;;;;;;5107144;28;19962;-71
2022/01/01 11:52:13;;;;;;;;;;;11.10;99.90;;;;;;5106859;28;19987;-71
2022/01/01 11:54:42;;;;;;;;;;;11.20;99.90;;;;;;5106513;28;19942;-71
2022/01/01 11:57:10;;;;;;;;;;;11.10;99.90;;;;;;5107113;28;19982;-72
2022/01/01 11:59:41;;;;;;;;;;;11.10;99.90;;;;;;5106741;28;19994;-71
2022/01/01 12:02:29;;;;;;;;;;;11.20;99.90;;;;;;5106433;28;19987;-71
2022/01/01 12:05:08;;;;;;;;;;;11.20;99.90;;;;;;5106614;28;19920;-71
2022/01/01 12:07:42;;;;;;;;;;;11.20;99.90;;;;;;5106604;28;20127;-71
2022/01/01 12:10:16;;;;;;;;;;;11.30;99.90;;;;;;5106783;28;19920;-70
2022/01/01 12:12:43;;;;;;;;;;;11.30;99.90;;;;;;5106437;28;20353;-70
2022/01/01 12:15:11;;;;;;;;;;;11.30;99.90;;;;;;5106294;28;19956;-71
2022/01/01 12:17:40;;;;;;;;;;;11.30;99.90;;;;;;5106355;28;20115;-71
2022/01/01 12:20:10;;;;;;;;;;;11.30;99.90;;;;;;5106631;28;19920;-69
2022/01/01 12:22:37;;;;;;;;;;;11.30;99.90;;;;;;5106761;28;20115;-70
2022/01/01 12:25:03;;;;;;;;;;;11.30;99.90;;;;;;5106378;28;19926;-70
2022/01/01 12:27:40;;;;;;;;;;;11.40;99.90;;;;;;5106144;28;20208;-70
2022/01/01 12:30:07;;;;;;;;;;;11.40;99.90;;;;;;5106215;28;19926;-70
2022/01/01 12:32:38;;;;;;;;;;;11.40;99.90;;;;;;5106202;28;19920;-70
2022/01/01 12:35:08;;;;;;;;;;;11.40;99.90;;;;;;5095964;28;20540;-70
2022/01/01 12:37:37;;;;;;;;;;;11.40;99.90;;;;;;5085998;28;19962;-71
2022/01/01 12:40:04;;;;;;;;;;;11.40;99.90;;;;;;5093707;28;19920;-71
2022/01/01 12:42:32;;;;;;;;;;;11.40;99.90;;;;;;5104959;28;20204;-72
2022/01/01 12:44:59;;;;;;;;;;;11.50;99.90;;;;;;5105742;28;20219;-70
2022/01/01 12:47:27;;;;;;;;;;;11.50;99.90;;;;;;5106027;28;19920;-73
2022/01/01 12:49:55;;;;;;;;;;;11.50;99.90;;;;;;5104283;28;20207;-69
2022/01/01 12:52:22;;;;;;;;;;;11.50;99.90;;;;;;5091163;28;19927;-70
2022/01/01 12:54:50;;;;;;;;;;;11.40;99.90;;;;;;5085079;28;20230;-71
2022/01/01 12:57:18;;;;;;;;;;;11.40;99.90;;;;;;5085499;28;19956;-71
2022/01/01 12:59:47;;;;;;;;;;;11.40;99.90;;;;;;5099828;28;19920;-71
2022/01/01 13:02:14;;;;;;;;;;;11.40;99.90;;;;;;5089017;28;19970;-71
2022/01/01 13:04:41;;;;;;;;;;;11.40;99.90;;;;;;5099660;28;19926;-72
2022/01/01 13:07:08;;;;;;;;;;;11.40;99.90;;;;;;5105416;28;19927;-70
2022/01/01 13:09:35;;;;;;;;;;;11.40;99.90;;;;;;5105112;28;20215;-70
2022/01/01 13:12:04;;;;;;;;;;;11.50;99.90;;;;;;5105045;28;19920;-71
2022/01/01 13:14:32;;;;;;;;;;;11.60;99.90;;;;;;5105124;28;19927;-71
2022/01/01 13:16:59;;;;;;;;;;;11.60;99.90;;;;;;5105259;28;19962;-71
2022/01/01 13:19:25;;;;;;;;;;;11.60;99.90;;;;;;5105470;28;19989;-70
2022/01/01 13:21:53;;;;;;;;;;;11.60;99.90;;;;;;5105470;28;19920;-71
2022/01/01 13:24:20;;;;;;;;;;;11.60;99.90;;;;;;5105145;28;20119;-70
2022/01/01 13:26:46;;;;;;;;;;;11.70;99.90;;;;;;5104992;28;20207;-71
2022/01/01 13:29:14;;;;;;;;;;;11.70;99.90;;;;;;5105271;28;19927;-70
2022/01/01 13:31:41;;;;;;;;;;;11.70;99.90;;;;;;5104688;28;19920;-71
2022/01/01 13:34:11;;;;;;;;;;;11.70;99.90;;;;;;5104911;28;20122;-70
2022/01/01 13:36:42;;;;;;;;;;;11.70;99.90;;;;;;5104787;28;19920;-70
2022/01/01 13:39:09;;;;;;;;;;;11.70;99.90;;;;;;5105186;28;19927;-69
2022/01/01 13:41:36;;;;;;;;;;;11.70;99.90;;;;;;5104752;28;19920;-74
2022/01/01 13:44:23;;;;;;;;;;;11.70;99.90;;;;;;5104323;28;20199;-71
2022/01/01 13:46:50;;;;;;;;;;;11.70;99.90;;;;;;5103927;28;20143;-71
2022/01/01 13:49:17;;;;;;;;;;;11.80;99.90;;;;;;5104434;28;19927;-73
2022/01/01 13:51:44;;;;;;;;;;;11.80;99.90;;;;;;5104357;28;19920;-73
2022/01/01 13:54:11;;;;;;;;;;;11.80;99.90;;;;;;5103822;28;19920;-73
2022/01/01 13:56:38;;;;;;;;;;;11.80;99.90;;;;;;5104550;28;19961;-71
2022/01/01 13:59:05;;;;;;;;;;;11.70;99.90;;;;;;5104163;28;19920;-71
2022/01/01 14:01:35;;;;;;;;;;;11.80;99.90;;;;;;5104064;28;19941;-71
2022/01/01 14:04:03;;;;;;;;;;;11.70;99.90;;;;;;5103753;28;19920;-71
2022/01/01 14:06:35;;;;;;;;;;;11.70;99.90;;;;;;5103937;28;19926;-71
2022/01/01 14:09:02;;;;;;;;;;;11.70;99.90;;;;;;5104274;28;19927;-72
2022/01/01 14:11:33;;;;;;;;;;;11.70;99.90;;;;;;5104228;28;19920;-71
2022/01/01 14:14:06;;;;;;;;;;;11.70;99.90;;;;;;5103764;28;20115;-72
2022/01/01 14:16:42;;;;;;;;;;;11.70;99.90;;;;;;5103969;28;19920;-72
2022/01/01 14:19:11;;;;;;;;;;;11.70;99.90;;;;;;5103868;28;20122;-72
2022/01/01 14:21:38;;;;;;;;;;;11.70;99.90;;;;;;5104029;28;19920;-73
2022/01/01 14:24:05;;;;;;;;;;;11.70;99.90;;;;;;5103670;28;19928;-72
2022/01/01 14:26:40;;;;;;;;;;;11.60;99.90;;;;;;5103873;28;19920;-73
2022/01/01 14:29:06;;;;;;;;;;;11.70;99.90;;;;;;5103767;28;19920;-73